createdAt,value
2023-09-08T00:02:11.638Z,7.20
2023-09-08T00:04:38.126Z,6.32
2023-09-08T00:07:05.280Z,7.57
2023-09-08T00:09:31.792Z,6.40
2023-09-08T00:11:58.307Z,5.35
2023-09-08T00:14:24.694Z,5.75
2023-09-08T00:16:55.320Z,5.95
2023-09-08T00:19:22.495Z,5.85
2023-09-08T00:21:48.860Z,7.63
2023-09-08T00:24:15.282Z,8.15
2023-09-08T00:26:41.807Z,6.30
2023-09-08T00:29:08.796Z,6.85
2023-09-08T00:31:35.274Z,5.88
2023-09-08T00:34:01.866Z,5.32
2023-09-08T00:36:28.369Z,6.72
2023-09-08T00:38:54.778Z,6.53
2023-09-08T00:41:21.413Z,5.68
2023-09-08T00:43:47.888Z,6.90
2023-09-08T00:46:14.464Z,5.35
2023-09-08T00:48:41.063Z,6.45
2023-09-08T00:51:08.974Z,6.85
2023-09-08T00:53:35.534Z,7.03
2023-09-08T00:56:02.089Z,6.65
2023-09-08T00:58:29.134Z,5.20
2023-09-08T01:00:55.521Z,6.57
2023-09-08T01:03:22.006Z,10.60
2023-09-08T01:05:49.418Z,6.22
2023-09-08T01:08:16.628Z,5.85
2023-09-08T01:10:43.283Z,5.32
2023-09-08T01:13:10.350Z,10.98
2023-09-08T01:15:36.862Z,8.95
2023-09-08T01:18:03.573Z,7.13
2023-09-08T01:21:00.651Z,6.53
2023-09-08T01:23:53.233Z,9.52
2023-09-08T01:26:22.201Z,5.30
2023-09-08T01:28:51.321Z,7.18
2023-09-08T01:31:19.045Z,6.85
2023-09-08T01:33:46.577Z,10.35
2023-09-08T01:36:13.964Z,7.97
2023-09-08T01:38:40.586Z,6.38
2023-09-08T01:41:07.056Z,10.13
2023-09-08T01:43:33.589Z,5.25
2023-09-08T01:46:00.010Z,7.15
2023-09-08T01:48:26.442Z,9.65
2023-09-08T01:50:52.887Z,8.30
2023-09-08T01:53:19.232Z,6.57
2023-09-08T01:55:46.435Z,7.25
2023-09-08T01:58:12.861Z,6.55
2023-09-08T02:00:39.249Z,6.72
2023-09-08T02:03:05.713Z,6.65
2023-09-08T02:05:32.288Z,9.70
2023-09-08T02:07:58.820Z,7.25
2023-09-08T02:10:25.215Z,7.32
2023-09-08T02:12:51.638Z,9.85
2023-09-08T02:15:18.506Z,8.70
2023-09-08T02:17:44.978Z,6.40
2023-09-08T02:20:11.848Z,6.80
2023-09-08T02:22:38.215Z,6.65
2023-09-08T02:25:05.507Z,9.30
2023-09-08T02:27:31.929Z,8.90
2023-09-08T02:29:58.322Z,9.68
2023-09-08T02:32:24.696Z,9.63
2023-09-08T02:34:51.433Z,9.57
2023-09-08T02:37:20.020Z,8.00
2023-09-08T02:39:46.502Z,9.88
2023-09-08T02:42:12.928Z,8.38
2023-09-08T02:44:39.286Z,6.70
2023-09-08T02:47:07.491Z,8.77
2023-09-08T02:49:33.990Z,6.93
2023-09-08T02:52:00.516Z,10.00
2023-09-08T02:54:26.939Z,8.65
2023-09-08T02:56:53.356Z,7.03
2023-09-08T02:59:19.820Z,11.55
2023-09-08T03:01:46.826Z,9.63
2023-09-08T03:04:13.375Z,6.80
2023-09-08T03:06:39.738Z,8.32
2023-09-08T03:09:06.138Z,6.45
2023-09-08T03:11:32.544Z,6.38
2023-09-08T03:13:58.980Z,6.75
2023-09-08T03:16:25.401Z,7.18
2023-09-08T03:18:51.904Z,7.68
2023-09-08T03:21:18.304Z,8.30
2023-09-08T03:23:45.440Z,10.82
2023-09-08T03:26:12.570Z,7.95
2023-09-08T03:28:42.094Z,8.32
2023-09-08T03:31:08.618Z,9.43
2023-09-08T03:33:35.200Z,7.40
2023-09-08T03:36:02.263Z,8.85
2023-09-08T03:38:28.671Z,6.97
2023-09-08T03:40:55.044Z,6.50
2023-09-08T03:43:21.524Z,7.75
2023-09-08T03:45:48.599Z,8.85
2023-09-08T03:48:15.514Z,8.43
2023-09-08T03:50:43.058Z,7.95
2023-09-08T03:53:09.604Z,9.60
2023-09-08T03:55:36.001Z,7.57
2023-09-08T03:58:02.360Z,6.82
2023-09-08T04:00:28.846Z,9.20
2023-09-08T04:02:55.358Z,6.82
2023-09-08T04:05:22.027Z,7.85
2023-09-08T04:07:49.014Z,7.50
2023-09-08T04:10:15.523Z,8.40
2023-09-08T04:12:42.162Z,8.13
2023-09-08T04:15:09.829Z,9.45
2023-09-08T04:17:37.219Z,9.05
2023-09-08T04:20:08.001Z,8.88
2023-09-08T04:22:34.731Z,9.40
2023-09-08T04:25:02.173Z,7.30
2023-09-08T04:27:28.601Z,8.32
2023-09-08T04:29:55.060Z,8.43
2023-09-08T04:32:21.615Z,8.15
2023-09-08T04:34:48.047Z,8.32
2023-09-08T04:37:15.188Z,11.43
2023-09-08T04:39:41.605Z,7.40
2023-09-08T04:42:10.363Z,8.80
2023-09-08T04:44:36.720Z,7.75
2023-09-08T04:47:03.328Z,11.75
2023-09-08T04:49:30.110Z,10.65
2023-09-08T04:51:56.669Z,7.38
2023-09-08T04:54:25.305Z,6.50
2023-09-08T04:56:51.900Z,8.45
2023-09-08T04:59:18.417Z,7.05
2023-09-08T05:01:44.978Z,6.93
2023-09-08T05:04:13.031Z,8.00
2023-09-08T05:06:39.522Z,7.72
2023-09-08T05:09:08.087Z,10.88
2023-09-08T05:11:34.691Z,6.50
2023-09-08T05:14:01.087Z,7.95
2023-09-08T05:16:37.920Z,7.32
2023-09-08T05:19:05.127Z,9.40
2023-09-08T05:21:32.473Z,6.55
2023-09-08T05:23:59.129Z,8.02
2023-09-08T05:26:25.581Z,11.18
2023-09-08T05:28:51.966Z,7.22
2023-09-08T05:31:18.366Z,7.47
2023-09-08T05:33:45.001Z,8.48
2023-09-08T05:36:13.469Z,7.80
2023-09-08T05:38:42.154Z,9.10
2023-09-08T05:41:08.510Z,8.60
2023-09-08T05:43:34.927Z,6.90
2023-09-08T05:46:01.515Z,8.25
2023-09-08T05:48:28.032Z,8.15
2023-09-08T05:50:54.477Z,6.75
2023-09-08T05:53:21.003Z,6.55
2023-09-08T05:55:47.517Z,8.45
2023-09-08T05:58:13.911Z,7.50
2023-09-08T06:00:41.621Z,9.60
2023-09-08T06:03:08.153Z,7.38
2023-09-08T06:05:34.721Z,7.00
2023-09-08T06:08:07.045Z,7.88
2023-09-08T06:10:34.461Z,7.60
2023-09-08T06:13:00.948Z,10.55
2023-09-08T06:15:27.414Z,6.72
2023-09-08T06:17:53.907Z,7.03
2023-09-08T06:20:20.394Z,8.07
2023-09-08T06:22:46.799Z,7.88
2023-09-08T06:25:13.714Z,7.53
2023-09-08T06:27:40.791Z,6.88
2023-09-08T06:30:07.832Z,6.40
2023-09-08T06:32:34.300Z,7.15
2023-09-08T06:35:00.729Z,6.13
2023-09-08T06:37:27.304Z,7.57
2023-09-08T06:39:55.821Z,6.65
2023-09-08T06:42:23.157Z,6.50
2023-09-08T06:44:49.546Z,13.98
2023-09-08T06:47:17.009Z,7.25
2023-09-08T06:49:43.413Z,11.00
2023-09-08T06:52:09.826Z,6.53
2023-09-08T06:54:36.513Z,5.93
2023-09-08T06:57:03.033Z,5.90
2023-09-08T06:59:29.418Z,5.18
2023-09-08T07:01:56.178Z,5.55
2023-09-08T07:04:22.880Z,6.30
2023-09-08T07:06:50.996Z,5.68
2023-09-08T07:09:17.529Z,5.85
2023-09-08T07:11:43.924Z,6.22
2023-09-08T07:14:10.329Z,5.78
2023-09-08T07:16:36.791Z,5.22
2023-09-08T07:19:03.322Z,10.20
2023-09-08T07:21:29.680Z,10.02
2023-09-08T07:23:56.061Z,7.93
2023-09-08T07:26:22.475Z,7.25
2023-09-08T07:28:50.018Z,7.72
2023-09-08T07:31:16.920Z,6.60
2023-09-08T07:33:43.506Z,6.25
2023-09-08T07:36:10.224Z,7.25
2023-09-08T07:38:36.876Z,4.85
2023-09-08T07:41:03.643Z,6.82
2023-09-08T07:43:30.440Z,6.72
2023-09-08T07:45:57.107Z,8.90
2023-09-08T07:48:23.541Z,6.90
2023-09-08T07:50:49.999Z,6.00
2023-09-08T07:53:16.392Z,8.32
2023-09-08T07:55:42.762Z,4.70
2023-09-08T07:58:09.391Z,4.35
2023-09-08T08:00:35.882Z,4.95
2023-09-08T08:03:05.183Z,5.68
2023-09-08T08:05:31.644Z,8.95
2023-09-08T08:07:58.098Z,7.22
2023-09-08T08:10:24.546Z,6.82
2023-09-08T08:12:51.026Z,6.10
2023-09-08T08:15:19.658Z,5.25
2023-09-08T08:17:46.272Z,8.73
2023-09-08T08:20:18.380Z,6.20
2023-09-08T08:22:48.530Z,4.95
2023-09-08T08:25:14.958Z,6.10
2023-09-08T08:27:41.836Z,4.30
2023-09-08T08:30:09.122Z,10.05
2023-09-08T08:32:35.941Z,7.18
2023-09-08T08:35:02.626Z,5.68
2023-09-08T08:37:29.295Z,3.78
2023-09-08T08:39:56.148Z,5.43
2023-09-08T08:42:25.574Z,5.72
2023-09-08T08:44:52.222Z,5.47
2023-09-08T08:47:21.132Z,5.22
2023-09-08T08:49:49.881Z,6.00
2023-09-08T08:52:16.661Z,6.22
2023-09-08T08:54:43.934Z,5.75
2023-09-08T08:57:12.104Z,7.68
2023-09-08T08:59:38.629Z,4.40
2023-09-08T09:02:06.238Z,5.57
2023-09-08T09:04:33.337Z,7.88
2023-09-08T09:07:00.419Z,7.25
2023-09-08T09:09:26.884Z,9.27
2023-09-08T09:11:53.377Z,6.43
2023-09-08T09:14:20.162Z,3.50
2023-09-08T09:16:48.692Z,7.45
2023-09-08T09:19:28.608Z,4.68
2023-09-08T09:21:56.519Z,4.95
2023-09-08T09:24:30.478Z,3.78
2023-09-08T09:26:57.521Z,4.68
2023-09-08T09:29:23.929Z,8.00
2023-09-08T09:32:09.127Z,7.28
2023-09-08T09:34:36.133Z,4.50
2023-09-08T09:37:04.948Z,3.50
2023-09-08T09:39:31.330Z,5.35
2023-09-08T09:41:58.953Z,4.97
2023-09-08T09:44:26.830Z,5.22
2023-09-08T09:46:54.459Z,5.43
2023-09-08T09:49:21.303Z,4.70
2023-09-08T09:51:50.280Z,4.95
2023-09-08T09:54:16.978Z,6.00
2023-09-08T09:56:46.631Z,5.68
2023-09-08T09:59:14.941Z,8.25
2023-09-08T10:01:43.488Z,6.20
2023-09-08T10:04:11.391Z,5.78
2023-09-08T10:06:41.443Z,4.13
2023-09-08T10:09:14.572Z,4.55
2023-09-08T10:11:49.798Z,6.40
2023-09-08T10:14:19.700Z,7.05
2023-09-08T10:16:50.603Z,6.22
2023-09-08T10:19:18.168Z,4.07
2023-09-08T10:21:47.978Z,4.68
2023-09-08T10:24:27.339Z,5.32
2023-09-08T10:27:07.433Z,5.75
2023-09-08T10:29:34.086Z,4.22
2023-09-08T10:32:01.040Z,5.55
2023-09-08T10:34:29.465Z,4.30
2023-09-08T10:36:55.900Z,4.88
2023-09-08T10:39:33.778Z,3.83
2023-09-08T10:42:19.514Z,6.65
2023-09-08T10:44:57.828Z,4.55
2023-09-08T10:47:32.452Z,4.53
2023-09-08T10:50:01.663Z,4.63
2023-09-08T10:52:28.579Z,4.22
2023-09-08T10:54:56.745Z,5.95
2023-09-08T10:57:25.526Z,8.68
2023-09-08T10:59:56.861Z,6.80
2023-09-08T11:02:39.735Z,5.97
2023-09-08T11:05:11.617Z,4.53
2023-09-08T11:07:38.817Z,5.63
2023-09-08T11:10:09.816Z,6.97
2023-09-08T11:12:36.405Z,4.60
2023-09-08T11:15:09.236Z,4.72
2023-09-08T11:17:37.385Z,6.03
2023-09-08T11:20:09.868Z,4.15
2023-09-08T11:22:38.209Z,5.22
2023-09-08T11:25:07.267Z,4.13
2023-09-08T11:27:33.881Z,4.47
2023-09-08T11:30:00.726Z,3.92
2023-09-08T11:32:33.410Z,2.85
2023-09-08T11:35:08.491Z,4.38
2023-09-08T11:37:39.039Z,3.28
2023-09-08T11:40:15.564Z,5.07
2023-09-08T11:42:46.712Z,5.18
2023-09-08T11:45:22.533Z,5.43
2023-09-08T11:47:50.512Z,3.95
2023-09-08T11:50:19.815Z,4.55
2023-09-08T11:52:48.397Z,5.47
2023-09-08T11:55:16.115Z,5.05
2023-09-08T11:57:45.157Z,7.80
2023-09-08T12:00:17.568Z,5.03
2023-09-08T12:02:45.204Z,3.57
2023-09-08T12:05:25.402Z,6.35
2023-09-08T12:07:53.122Z,3.95
2023-09-08T12:10:19.879Z,4.57
2023-09-08T12:12:49.273Z,3.67
2023-09-08T12:15:30.892Z,3.85
2023-09-08T12:17:57.366Z,5.95
2023-09-08T12:20:23.824Z,5.53
2023-09-08T12:22:51.368Z,3.72
2023-09-08T12:25:18.399Z,3.83
2023-09-08T12:27:46.970Z,3.30
2023-09-08T12:30:21.596Z,4.85
2023-09-08T12:32:50.184Z,4.05
2023-09-08T12:35:23.728Z,6.07
2023-09-08T12:38:04.016Z,5.40
2023-09-08T12:40:32.111Z,3.67
2023-09-08T12:43:03.927Z,4.53
2023-09-08T12:45:47.892Z,4.15
2023-09-08T12:48:14.344Z,4.88
2023-09-08T12:50:40.860Z,4.13
2023-09-08T12:53:07.596Z,3.47
2023-09-08T12:55:33.954Z,3.20
2023-09-08T12:58:00.495Z,4.38
2023-09-08T13:00:28.480Z,3.65
2023-09-08T13:02:56.064Z,5.10
2023-09-08T13:05:22.700Z,4.32
2023-09-08T13:07:49.201Z,4.88
2023-09-08T13:10:15.711Z,4.22
2023-09-08T13:12:42.674Z,5.20
2023-09-08T13:15:09.846Z,3.45
2023-09-08T13:17:36.340Z,4.38
2023-09-08T13:20:04.032Z,3.55
2023-09-08T13:22:30.776Z,3.72
2023-09-08T13:24:57.192Z,3.05
2023-09-08T13:27:23.566Z,5.80
2023-09-08T13:29:49.973Z,3.80
2023-09-08T13:32:17.035Z,3.28
2023-09-08T13:34:44.715Z,4.15
2023-09-08T13:37:11.445Z,2.78
2023-09-08T13:39:38.022Z,4.00
2023-09-08T13:42:04.669Z,5.85
2023-09-08T13:44:31.357Z,4.13
2023-09-08T13:46:58.161Z,2.95
2023-09-08T13:49:26.361Z,5.72
2023-09-08T13:51:57.201Z,4.10
2023-09-08T13:54:25.077Z,3.33
2023-09-08T13:57:01.848Z,3.38
2023-09-08T13:59:30.327Z,2.92
2023-09-08T14:02:33.472Z,2.28
2023-09-08T14:04:51.217Z,3.33
2023-09-08T14:09:54.931Z,3.88
2023-09-08T14:12:34.583Z,4.32
2023-09-08T14:15:03.408Z,4.18
2023-09-08T14:17:29.998Z,3.28
2023-09-08T14:19:56.684Z,4.30
2023-09-08T14:22:23.165Z,2.95
2023-09-08T14:24:49.638Z,4.65
2023-09-08T14:27:16.211Z,4.20
2023-09-08T14:29:42.637Z,4.00
2023-09-08T14:32:09.265Z,3.90
2023-09-08T14:34:35.750Z,4.28
2023-09-08T14:37:04.771Z,2.53
2023-09-08T14:39:32.029Z,4.28
2023-09-08T14:41:58.457Z,3.75
2023-09-08T14:44:24.886Z,3.00
2023-09-08T14:46:51.927Z,3.72
2023-09-08T14:49:18.710Z,4.05
2023-09-08T14:51:45.640Z,3.53
2023-09-08T14:54:12.197Z,3.28
2023-09-08T14:56:38.642Z,2.83
2023-09-08T14:59:05.091Z,3.90
2023-09-08T15:01:31.499Z,5.68
2023-09-08T15:03:58.054Z,4.10
2023-09-08T15:06:27.311Z,6.18
2023-09-08T15:08:54.908Z,3.15
2023-09-08T15:11:21.707Z,4.25
2023-09-08T15:13:48.129Z,2.88
2023-09-08T15:16:16.121Z,4.80
2023-09-08T15:18:42.880Z,2.70
2023-09-08T15:21:09.590Z,4.13
2023-09-08T15:23:36.787Z,4.32
2023-09-08T15:26:03.565Z,4.47
2023-09-08T15:28:30.431Z,3.88
2023-09-08T15:30:57.055Z,2.80
2023-09-08T15:33:24.818Z,5.57
2023-09-08T15:35:55.858Z,2.83
2023-09-08T15:38:23.775Z,4.25
2023-09-08T15:41:08.712Z,4.93
2023-09-08T15:43:37.406Z,3.17
2023-09-08T15:46:05.148Z,2.95
2023-09-08T15:48:31.610Z,4.55
2023-09-08T15:50:58.380Z,5.50
2023-09-08T15:53:25.177Z,4.45
2023-09-08T15:55:51.938Z,4.45
2023-09-08T15:58:18.664Z,4.25
2023-09-08T16:00:45.274Z,5.40
2023-09-08T16:03:12.046Z,4.88
2023-09-08T16:05:38.831Z,3.85
2023-09-08T16:08:05.868Z,3.47
2023-09-08T16:10:32.571Z,5.53
2023-09-08T16:13:01.715Z,4.07
2023-09-08T16:15:28.774Z,3.15
2023-09-08T16:17:55.532Z,5.63
2023-09-08T16:20:23.067Z,3.35
2023-09-08T16:22:50.159Z,6.05
2023-09-08T16:25:18.359Z,5.40
2023-09-08T16:27:48.074Z,3.70
2023-09-08T16:30:14.812Z,5.20
2023-09-08T16:32:41.938Z,4.13
2023-09-08T16:35:09.252Z,3.35
2023-09-08T16:37:35.814Z,3.20
2023-09-08T16:40:02.546Z,4.60
2023-09-08T16:42:29.203Z,5.55
2023-09-08T16:44:55.946Z,3.35
2023-09-08T16:47:24.359Z,3.35
2023-09-08T16:49:51.188Z,4.80
2023-09-08T16:52:17.718Z,3.63
2023-09-08T16:54:46.306Z,4.38
2023-09-08T16:57:13.236Z,3.85
2023-09-08T16:59:39.696Z,4.75
2023-09-08T17:02:06.278Z,3.47
2023-09-08T17:04:33.060Z,4.07
2023-09-08T17:06:59.995Z,5.55
2023-09-08T17:09:27.362Z,3.22
2023-09-08T17:11:53.755Z,5.05
2023-09-08T17:14:20.112Z,3.90
2023-09-08T17:16:46.520Z,4.32
2023-09-08T17:19:12.968Z,7.25
2023-09-08T17:21:39.350Z,3.58
2023-09-08T17:24:06.209Z,6.25
2023-09-08T17:26:32.574Z,5.95
2023-09-08T17:28:58.936Z,3.20
2023-09-08T17:31:25.349Z,3.85
2023-09-08T17:33:51.788Z,3.95
2023-09-08T17:36:18.322Z,4.15
2023-09-08T17:38:44.797Z,4.22
2023-09-08T17:41:11.258Z,4.95
2023-09-08T17:43:38.139Z,3.85
2023-09-08T17:46:05.471Z,3.58
2023-09-08T17:48:32.166Z,5.60
2023-09-08T17:50:58.549Z,4.82
2023-09-08T17:53:24.904Z,4.07
2023-09-08T17:55:51.306Z,5.00
2023-09-08T17:58:17.825Z,5.13
2023-09-08T18:00:45.143Z,4.50
2023-09-08T18:03:14.474Z,4.05
2023-09-08T18:05:42.725Z,3.80
2023-09-08T18:08:09.292Z,6.50
2023-09-08T18:10:35.772Z,4.15
2023-09-08T18:13:02.286Z,3.65
2023-09-08T18:15:28.742Z,6.53
2023-09-08T18:17:55.183Z,5.20
2023-09-08T18:20:21.666Z,4.13
2023-09-08T18:22:48.082Z,4.88
2023-09-08T18:25:14.572Z,5.13
2023-09-08T18:27:41.045Z,7.53
2023-09-08T18:30:07.913Z,4.30
2023-09-08T18:32:34.972Z,4.25
2023-09-08T18:35:01.340Z,6.22
2023-09-08T18:37:27.771Z,4.95
2023-09-08T18:39:54.650Z,5.78
2023-09-08T18:42:21.037Z,4.55
2023-09-08T18:44:47.462Z,4.10
2023-09-08T18:47:13.828Z,3.72
2023-09-08T18:49:40.432Z,5.47
2023-09-08T18:52:06.848Z,5.47
2023-09-08T18:54:33.312Z,5.88
2023-09-08T18:57:00.098Z,5.03
2023-09-08T18:59:26.552Z,5.10
2023-09-08T19:01:54.551Z,5.53
2023-09-08T19:04:21.002Z,5.18
2023-09-08T19:06:47.377Z,6.15
2023-09-08T19:09:13.853Z,7.03
2023-09-08T19:11:40.328Z,6.22
2023-09-08T19:14:06.823Z,6.65
2023-09-08T19:16:33.729Z,7.45
2023-09-08T19:19:00.264Z,5.93
2023-09-08T19:21:26.699Z,5.95
2023-09-08T19:23:53.161Z,7.38
2023-09-08T19:26:19.537Z,6.50
2023-09-08T19:28:45.991Z,8.52
2023-09-08T19:31:12.470Z,7.55
2023-09-08T19:33:39.158Z,8.18
2023-09-08T19:36:05.924Z,6.18
2023-09-08T19:38:33.046Z,8.20
2023-09-08T19:41:05.786Z,7.93
2023-09-08T19:43:32.524Z,10.02
2023-09-08T19:46:04.127Z,6.88
2023-09-08T19:48:30.951Z,6.65
2023-09-08T19:50:57.951Z,9.23
2023-09-08T19:53:24.534Z,9.25
2023-09-08T19:55:53.620Z,9.77
2023-09-08T19:58:20.949Z,6.70
2023-09-08T20:00:50.284Z,6.25
2023-09-08T20:03:16.934Z,8.55
2023-09-08T20:05:44.325Z,6.47
2023-09-08T20:08:11.159Z,6.53
2023-09-08T20:10:37.636Z,7.82
2023-09-08T20:13:04.290Z,7.65
2023-09-08T20:15:31.491Z,8.52
2023-09-08T20:17:57.947Z,7.60
2023-09-08T20:20:25.906Z,6.28
2023-09-08T20:22:52.588Z,7.22
2023-09-08T20:25:18.977Z,7.03
2023-09-08T20:27:47.970Z,7.90
2023-09-08T20:30:14.995Z,9.82
2023-09-08T20:32:41.504Z,8.63
2023-09-08T20:35:09.737Z,10.25
2023-09-08T20:37:36.265Z,6.55
2023-09-08T20:40:03.926Z,7.95
2023-09-08T20:42:30.340Z,9.38
2023-09-08T20:44:56.791Z,7.22
2023-09-08T20:47:23.138Z,7.90
2023-09-08T20:49:49.516Z,6.22
2023-09-08T20:52:15.969Z,10.95
2023-09-08T20:54:45.534Z,6.50
2023-09-08T20:57:12.317Z,7.10
2023-09-08T20:59:39.530Z,7.20
2023-09-08T21:02:08.991Z,9.20
2023-09-08T21:04:35.403Z,12.52
2023-09-08T21:07:01.911Z,8.05
2023-09-08T21:09:28.355Z,10.40
2023-09-08T21:11:54.927Z,7.43
2023-09-08T21:14:21.417Z,8.02
2023-09-08T21:16:47.749Z,8.18
2023-09-08T21:19:15.061Z,7.22
2023-09-08T21:21:41.635Z,8.43
2023-09-08T21:24:08.220Z,10.00
2023-09-08T21:26:34.709Z,9.20
2023-09-08T21:29:01.110Z,9.93
2023-09-08T21:31:27.525Z,7.03
2023-09-08T21:33:54.044Z,9.88
2023-09-08T21:36:20.536Z,6.80
2023-09-08T21:38:46.923Z,10.48
2023-09-08T21:41:13.565Z,8.27
2023-09-08T21:43:40.234Z,8.20
2023-09-08T21:46:08.391Z,8.45
2023-09-08T21:48:36.601Z,10.70
2023-09-08T21:51:04.015Z,9.63
2023-09-08T21:53:30.588Z,8.43
2023-09-08T21:55:57.100Z,7.97
2023-09-08T21:58:23.525Z,7.80
2023-09-08T22:00:50.036Z,7.18
2023-09-08T22:03:16.555Z,8.15
2023-09-08T22:05:43.456Z,7.60
2023-09-08T22:08:10.137Z,8.23
2023-09-08T22:10:36.599Z,7.60
2023-09-08T22:13:03.049Z,7.70
2023-09-08T22:15:29.460Z,6.18
2023-09-08T22:17:56.127Z,7.55
2023-09-08T22:20:23.508Z,8.85
2023-09-08T22:22:50.029Z,6.57
2023-09-08T22:25:16.410Z,7.53
2023-09-08T22:27:43.007Z,6.88
2023-09-08T22:30:09.828Z,8.02
2023-09-08T22:32:36.633Z,7.40
2023-09-08T22:35:05.110Z,7.88
2023-09-08T22:37:32.399Z,7.50
2023-09-08T22:39:58.752Z,7.57
2023-09-08T22:42:25.618Z,8.05
2023-09-08T22:44:52.077Z,10.88
2023-09-08T22:47:18.465Z,7.47
2023-09-08T22:49:57.433Z,6.78
2023-09-08T22:52:24.119Z,7.97
2023-09-08T22:54:50.562Z,7.75
2023-09-08T22:57:17.020Z,6.93
2023-09-08T22:59:44.137Z,8.32
2023-09-08T23:02:10.864Z,8.55
2023-09-08T23:04:37.274Z,7.72
2023-09-08T23:07:03.849Z,10.68
2023-09-08T23:09:30.281Z,8.95
2023-09-08T23:11:58.438Z,6.38
2023-09-08T23:14:24.880Z,8.68
2023-09-08T23:16:51.364Z,7.20
2023-09-08T23:19:18.288Z,6.82
2023-09-08T23:21:44.730Z,7.40
2023-09-08T23:24:11.174Z,7.15
2023-09-08T23:26:37.595Z,7.25
2023-09-08T23:29:03.981Z,7.30
2023-09-08T23:31:30.558Z,7.90
2023-09-08T23:33:56.952Z,8.00
2023-09-08T23:36:27.534Z,7.47
2023-09-08T23:38:53.903Z,6.43
2023-09-08T23:41:20.635Z,12.43
2023-09-08T23:43:47.044Z,8.18
2023-09-08T23:46:13.515Z,7.80
2023-09-08T23:48:39.909Z,7.35
2023-09-08T23:51:06.321Z,6.78
2023-09-08T23:53:34.166Z,7.03
2023-09-08T23:56:01.669Z,7.75
2023-09-08T23:58:28.053Z,7.65
